createdAt,value
2017-05-26T00:00:00.785Z,12.29
2017-05-26T00:00:06.632Z,12.3
2017-05-26T00:00:12.443Z,12.31
2017-05-26T00:00:18.013Z,12.33
2017-05-26T00:00:23.406Z,12.34
2017-05-26T00:00:28.047Z,12.33
2017-05-26T00:00:33.669Z,12.36
2017-05-26T00:00:38.320Z,12.36
2017-05-26T00:00:43.386Z,12.36
2017-05-26T00:00:48.590Z,12.36
2017-05-26T00:00:53.822Z,12.31
2017-05-26T00:00:58.314Z,12.36
2017-05-26T00:01:04.014Z,12.31
2017-05-26T00:01:09.441Z,12.31
2017-05-26T00:01:13.826Z,12.29
2017-05-26T00:01:18.682Z,12.29
2017-05-26T00:01:23.191Z,12.26
2017-05-26T00:01:28.170Z,12.3
2017-05-26T00:01:33.031Z,12.29
2017-05-26T00:01:38.279Z,12.33
2017-05-26T00:01:43.409Z,12.34
2017-05-26T00:01:48.363Z,12.31
2017-05-26T00:01:53.525Z,12.36
2017-05-26T00:01:58.170Z,12.34
2017-05-26T00:02:02.681Z,12.29
2017-05-26T00:02:07.310Z,12.3
2017-05-26T00:02:12.837Z,12.26
2017-05-26T00:02:17.748Z,12.25
2017-05-26T00:02:22.183Z,12.31
2017-05-26T00:02:26.718Z,12.29
2017-05-26T00:02:31.672Z,12.31
2017-05-26T00:02:36.562Z,12.3
2017-05-26T00:02:41.261Z,12.29
2017-05-26T00:02:46.239Z,12.37
2017-05-26T00:02:51.144Z,12.36
2017-05-26T00:02:55.905Z,12.34
2017-05-26T00:03:00.399Z,12.3
2017-05-26T00:03:05.041Z,12.36
2017-05-26T00:03:10.561Z,12.31
2017-05-26T00:03:15.425Z,12.36
2017-05-26T00:03:20.475Z,12.33
2017-05-26T00:03:25.238Z,12.36
2017-05-26T00:03:30.276Z,12.37
2017-05-26T00:03:34.724Z,12.33
2017-05-26T00:03:39.158Z,12.33
2017-05-26T00:03:43.583Z,12.34
2017-05-26T00:03:48.002Z,12.36
2017-05-26T00:03:52.426Z,12.33
2017-05-26T00:03:56.850Z,12.3
2017-05-26T00:04:01.277Z,12.34
2017-05-26T00:04:05.776Z,12.31
2017-05-26T00:04:09.973Z,12.36
2017-05-26T00:04:14.394Z,12.36
2017-05-26T00:04:18.702Z,12.33
2017-05-26T00:04:23.132Z,12.38
2017-05-26T00:04:27.560Z,12.33
2017-05-26T00:04:31.760Z,12.29
2017-05-26T00:04:36.068Z,12.29
2017-05-26T00:04:40.492Z,12.36
2017-05-26T00:04:44.915Z,12.36
2017-05-26T00:04:49.337Z,12.33
2017-05-26T00:04:53.766Z,12.36
2017-05-26T00:04:58.079Z,12.33
2017-05-26T00:05:02.588Z,12.31
2017-05-26T00:05:06.905Z,12.34
2017-05-26T00:05:11.213Z,12.31
2017-05-26T00:05:15.639Z,12.33
2017-05-26T00:05:19.891Z,12.33
2017-05-26T00:05:24.318Z,12.33
2017-05-26T00:05:28.631Z,12.38
2017-05-26T00:05:32.820Z,12.36
2017-05-26T00:05:37.245Z,12.36
2017-05-26T00:05:41.669Z,12.34
2017-05-26T00:05:45.978Z,12.36
2017-05-26T00:05:50.477Z,12.36
2017-05-26T00:05:54.912Z,12.38
2017-05-26T00:05:59.105Z,12.36
2017-05-26T00:06:03.410Z,12.36
2017-05-26T00:06:07.600Z,12.38
2017-05-26T00:06:11.913Z,12.38
2017-05-26T00:06:16.229Z,12.36
2017-05-26T00:06:20.421Z,12.41
2017-05-26T00:06:24.844Z,12.38
2017-05-26T00:06:29.270Z,12.36
2017-05-26T00:06:33.344Z,12.37
2017-05-26T00:06:37.774Z,12.29
2017-05-26T00:06:42.238Z,12.36
2017-05-26T00:06:46.676Z,12.33
2017-05-26T00:06:51.097Z,12.37
2017-05-26T00:06:55.526Z,12.38
2017-05-26T00:06:59.715Z,12.41
2017-05-26T00:07:04.142Z,12.36
2017-05-26T00:07:08.455Z,12.3
2017-05-26T00:07:12.897Z,12.37
2017-05-26T00:07:17.206Z,12.43
2017-05-26T00:07:21.635Z,12.38
2017-05-26T00:07:26.065Z,12.38
2017-05-26T00:07:30.489Z,12.4
2017-05-26T00:07:34.447Z,12.46
2017-05-26T00:07:38.898Z,12.41
2017-05-26T00:07:43.361Z,12.41
2017-05-26T00:07:47.676Z,12.34
2017-05-26T00:07:51.985Z,12.43
2017-05-26T00:07:56.181Z,12.43
2017-05-26T00:08:00.609Z,12.36
2017-05-26T00:08:05.042Z,12.43
2017-05-26T00:08:09.357Z,12.37
2017-05-26T00:08:13.671Z,12.36
2017-05-26T00:08:17.981Z,12.43
2017-05-26T00:08:22.288Z,12.31
2017-05-26T00:08:26.720Z,12.43
2017-05-26T00:08:31.150Z,12.43
2017-05-26T00:08:35.233Z,12.4
2017-05-26T00:08:39.665Z,12.41
2017-05-26T00:08:43.861Z,12.34
2017-05-26T00:08:48.290Z,12.43
2017-05-26T00:08:52.721Z,12.41
2017-05-26T00:08:57.164Z,12.34
2017-05-26T00:09:01.486Z,12.43
2017-05-26T00:09:05.992Z,12.38
2017-05-26T00:09:10.295Z,12.48
2017-05-26T00:09:14.723Z,12.43
2017-05-26T00:09:18.805Z,12.41
2017-05-26T00:09:23.128Z,12.43
2017-05-26T00:09:27.447Z,12.43
2017-05-26T00:09:31.761Z,12.41
2017-05-26T00:09:35.949Z,12.34
2017-05-26T00:09:40.381Z,12.43
2017-05-26T00:09:44.698Z,12.44
2017-05-26T00:09:49.135Z,12.41
2017-05-26T00:09:53.572Z,12.41
2017-05-26T00:09:57.892Z,12.43
2017-05-26T00:10:02.323Z,12.46
2017-05-26T00:10:06.511Z,12.37
2017-05-26T00:10:10.938Z,12.37
2017-05-26T00:10:15.012Z,12.43
2017-05-26T00:10:19.204Z,12.38
2017-05-26T00:10:23.390Z,12.36
2017-05-26T00:10:27.819Z,12.31
2017-05-26T00:10:32.126Z,12.31
2017-05-26T00:10:36.560Z,12.49
2017-05-26T00:10:40.999Z,12.34
2017-05-26T00:10:45.303Z,12.37
2017-05-26T00:10:49.619Z,12.34
2017-05-26T00:10:54.055Z,12.48
2017-05-26T00:10:58.365Z,12.38
2017-05-26T00:11:02.557Z,12.37
2017-05-26T00:11:06.906Z,12.37
2017-05-26T00:11:11.218Z,12.46
2017-05-26T00:11:15.525Z,12.48
2017-05-26T00:11:19.837Z,12.46
2017-05-26T00:11:24.148Z,12.4
2017-05-26T00:11:28.344Z,12.34
2017-05-26T00:11:32.830Z,12.37
2017-05-26T00:11:37.139Z,12.37
2017-05-26T00:11:41.453Z,12.34
2017-05-26T00:11:45.764Z,12.48
2017-05-26T00:11:50.191Z,12.36
2017-05-26T00:11:54.637Z,12.48
2017-05-26T00:11:59.073Z,12.48
2017-05-26T00:12:03.269Z,12.41
2017-05-26T00:12:07.461Z,12.51
2017-05-26T00:12:11.774Z,12.48
2017-05-26T00:12:16.200Z,12.43
2017-05-26T00:12:20.274Z,12.48
2017-05-26T00:12:24.698Z,12.37
2017-05-26T00:12:28.892Z,12.38
2017-05-26T00:12:33.324Z,12.34
2017-05-26T00:12:37.520Z,12.44
2017-05-26T00:12:41.829Z,12.48
2017-05-26T00:12:46.259Z,12.38
2017-05-26T00:12:50.692Z,12.46
2017-05-26T00:12:55.140Z,12.51
2017-05-26T00:12:59.575Z,12.37
2017-05-26T00:13:04.005Z,12.46
2017-05-26T00:13:08.434Z,12.41
2017-05-26T00:13:12.754Z,12.37
2017-05-26T00:13:17.064Z,12.49
2017-05-26T00:13:21.205Z,12.48
2017-05-26T00:13:25.516Z,12.37
2017-05-26T00:13:29.944Z,12.36
2017-05-26T00:13:34.139Z,12.37
2017-05-26T00:13:38.222Z,12.44
2017-05-26T00:13:42.533Z,12.48
2017-05-26T00:13:46.984Z,12.43
2017-05-26T00:13:51.427Z,12.49
2017-05-26T00:13:55.862Z,12.48
2017-05-26T00:14:00.294Z,12.48
2017-05-26T00:14:04.728Z,12.4
2017-05-26T00:14:08.922Z,12.48
2017-05-26T00:14:13.135Z,12.37
2017-05-26T00:14:17.641Z,12.48
2017-05-26T00:14:21.834Z,12.48
2017-05-26T00:14:26.264Z,12.37
2017-05-26T00:14:30.698Z,12.48
2017-05-26T00:14:35.008Z,12.48
2017-05-26T00:14:39.212Z,12.44
2017-05-26T00:14:43.646Z,12.46
2017-05-26T00:14:48.079Z,12.51
2017-05-26T00:14:52.390Z,12.48
2017-05-26T00:14:56.840Z,12.46
2017-05-26T00:15:01.266Z,12.48
2017-05-26T00:15:05.577Z,12.43
2017-05-26T00:15:09.782Z,12.44
2017-05-26T00:15:13.983Z,12.4
2017-05-26T00:15:18.423Z,12.49
2017-05-26T00:15:22.729Z,12.51
2017-05-26T00:15:27.039Z,12.48
2017-05-26T00:15:31.237Z,12.49
2017-05-26T00:15:35.553Z,12.48
2017-05-26T00:15:39.867Z,12.38
2017-05-26T00:15:44.301Z,12.46
2017-05-26T00:15:48.612Z,12.49
2017-05-26T00:15:53.048Z,12.48
2017-05-26T00:15:57.477Z,12.46
2017-05-26T00:16:01.785Z,12.49
2017-05-26T00:16:06.154Z,12.43
2017-05-26T00:16:10.354Z,12.48
2017-05-26T00:16:14.659Z,12.37
2017-05-26T00:16:19.082Z,12.37
2017-05-26T00:16:23.392Z,12.48
2017-05-26T00:16:27.825Z,12.48
2017-05-26T00:16:31.972Z,12.38
2017-05-26T00:16:36.407Z,12.48
2017-05-26T00:16:40.718Z,12.46
2017-05-26T00:16:45.157Z,12.48
2017-05-26T00:16:49.584Z,12.48
2017-05-26T00:16:54.031Z,12.36
2017-05-26T00:16:58.464Z,12.4
2017-05-26T00:17:02.897Z,12.34
2017-05-26T00:17:07.096Z,12.37
2017-05-26T00:17:11.543Z,12.43
2017-05-26T00:17:15.887Z,12.34
2017-05-26T00:17:20.402Z,12.34
2017-05-26T00:17:25.165Z,12.4
2017-05-26T00:17:30.359Z,12.48
2017-05-26T00:17:35.524Z,12.46
2017-05-26T00:17:40.933Z,12.34
2017-05-26T00:17:46.919Z,12.41
2017-05-26T00:17:51.276Z,12.37
2017-05-26T00:17:57.016Z,12.36
2017-05-26T00:18:01.501Z,12.38
2017-05-26T00:18:06.040Z,12.46
2017-05-26T00:18:10.720Z,12.38
2017-05-26T00:18:14.933Z,12.34
2017-05-26T00:18:19.410Z,12.33
2017-05-26T00:18:23.756Z,12.38
2017-05-26T00:18:28.232Z,12.41
2017-05-26T00:18:33.079Z,12.34
2017-05-26T00:18:37.396Z,12.36
2017-05-26T00:18:41.706Z,12.38
2017-05-26T00:18:46.376Z,12.43
2017-05-26T00:18:50.867Z,12.36
2017-05-26T00:18:55.448Z,12.46
2017-05-26T00:19:00.003Z,12.38
2017-05-26T00:19:04.688Z,12.38
2017-05-26T00:19:09.001Z,12.44
2017-05-26T00:19:13.426Z,12.44
2017-05-26T00:19:17.554Z,12.36
2017-05-26T00:19:21.874Z,12.36
2017-05-26T00:19:26.183Z,12.43
2017-05-26T00:19:30.615Z,12.43
2017-05-26T00:19:34.921Z,12.4
2017-05-26T00:19:39.349Z,12.48
2017-05-26T00:19:43.428Z,12.43
2017-05-26T00:19:47.873Z,12.4
2017-05-26T00:19:52.306Z,12.34
2017-05-26T00:19:56.627Z,12.38
2017-05-26T00:20:00.940Z,12.38
2017-05-26T00:20:05.241Z,12.4
2017-05-26T00:20:09.553Z,12.36
2017-05-26T00:20:13.747Z,12.36
2017-05-26T00:20:18.058Z,12.38
2017-05-26T00:20:22.482Z,12.36
2017-05-26T00:20:26.443Z,12.38
2017-05-26T00:20:30.874Z,12.36
2017-05-26T00:20:35.300Z,12.36
2017-05-26T00:20:39.732Z,12.4
2017-05-26T00:20:43.928Z,12.37
2017-05-26T00:20:48.350Z,12.38
2017-05-26T00:20:52.662Z,12.36
2017-05-26T00:20:57.100Z,12.33
2017-05-26T00:21:01.407Z,12.36
2017-05-26T00:21:05.727Z,12.34
2017-05-26T00:21:09.938Z,12.36
2017-05-26T00:21:14.248Z,12.34
2017-05-26T00:21:18.671Z,12.34
2017-05-26T00:21:23.102Z,12.33
2017-05-26T00:21:27.417Z,12.37
2017-05-26T00:21:31.856Z,12.33
2017-05-26T00:21:36.166Z,12.38
2017-05-26T00:21:40.480Z,12.34
2017-05-26T00:21:44.681Z,12.37
2017-05-26T00:21:48.992Z,12.29
2017-05-26T00:21:53.417Z,12.38
2017-05-26T00:21:57.859Z,12.3
2017-05-26T00:22:02.289Z,12.36
2017-05-26T00:22:06.597Z,12.37
2017-05-26T00:22:10.905Z,12.33
2017-05-26T00:22:15.208Z,12.31
2017-05-26T00:22:19.520Z,12.29
2017-05-26T00:22:23.950Z,12.3
2017-05-26T00:22:28.384Z,12.31
2017-05-26T00:22:32.813Z,12.37
2017-05-26T00:22:37.233Z,12.25
2017-05-26T00:22:41.661Z,12.34
2017-05-26T00:22:45.966Z,12.29
2017-05-26T00:22:50.289Z,12.29
2017-05-26T00:22:54.735Z,12.29
2017-05-26T00:22:59.174Z,12.3
2017-05-26T00:23:03.611Z,12.29
2017-05-26T00:23:07.687Z,12.29
2017-05-26T00:23:11.996Z,12.33
2017-05-26T00:23:16.188Z,12.33
2017-05-26T00:23:20.393Z,12.34
2017-05-26T00:23:24.830Z,12.29
2017-05-26T00:23:29.269Z,12.3
2017-05-26T00:23:33.575Z,12.33
2017-05-26T00:23:38.001Z,12.38
2017-05-26T00:23:42.428Z,12.29
2017-05-26T00:23:46.749Z,12.33
2017-05-26T00:23:51.173Z,12.31
2017-05-26T00:23:55.609Z,12.3
2017-05-26T00:23:59.807Z,12.37
2017-05-26T00:24:04.230Z,12.29
2017-05-26T00:24:08.553Z,12.3
2017-05-26T00:24:12.868Z,12.3
2017-05-26T00:24:17.067Z,12.31
2017-05-26T00:24:21.206Z,12.31
2017-05-26T00:24:25.518Z,12.33
2017-05-26T00:24:29.949Z,12.31
2017-05-26T00:24:34.378Z,12.3
2017-05-26T00:24:38.810Z,12.26
2017-05-26T00:24:43.241Z,12.3
2017-05-26T00:24:47.442Z,12.33
2017-05-26T00:24:51.883Z,12.34
2017-05-26T00:24:56.342Z,12.22
2017-05-26T00:25:00.658Z,12.29
2017-05-26T00:25:04.961Z,12.33
2017-05-26T00:25:09.036Z,12.26
2017-05-26T00:25:13.231Z,12.21
2017-05-26T00:25:17.662Z,12.29
2017-05-26T00:25:22.109Z,12.34
2017-05-26T00:25:26.412Z,12.25
2017-05-26T00:25:30.842Z,12.25
2017-05-26T00:25:35.153Z,12.26
2017-05-26T00:25:39.459Z,12.25
2017-05-26T00:25:43.891Z,12.23
2017-05-26T00:25:48.269Z,12.3
2017-05-26T00:25:52.343Z,12.25
2017-05-26T00:25:56.649Z,12.3
2017-05-26T00:26:01.081Z,12.25
2017-05-26T00:26:05.670Z,12.29
2017-05-26T00:26:09.746Z,12.26
2017-05-26T00:26:14.063Z,12.21
2017-05-26T00:26:18.383Z,12.3
2017-05-26T00:26:22.822Z,12.19
2017-05-26T00:26:27.134Z,12.19
2017-05-26T00:26:31.560Z,12.25
2017-05-26T00:26:35.758Z,12.33
2017-05-26T00:26:40.192Z,12.26
2017-05-26T00:26:44.513Z,12.23
2017-05-26T00:26:48.708Z,12.23
2017-05-26T00:26:53.144Z,12.18
2017-05-26T00:26:57.568Z,12.25
2017-05-26T00:27:01.811Z,12.19
2017-05-26T00:27:06.241Z,12.26
2017-05-26T00:27:10.452Z,12.26
2017-05-26T00:27:14.774Z,12.26
2017-05-26T00:27:18.965Z,12.22
2017-05-26T00:27:23.395Z,12.25
2017-05-26T00:27:27.588Z,12.23
2017-05-26T00:27:31.892Z,12.21
2017-05-26T00:27:36.204Z,12.25
2017-05-26T00:27:40.643Z,12.25
2017-05-26T00:27:45.088Z,12.22
2017-05-26T00:27:49.278Z,12.25
2017-05-26T00:27:53.711Z,12.25
2017-05-26T00:27:58.030Z,12.31
2017-05-26T00:28:02.461Z,12.23
2017-05-26T00:28:06.773Z,12.26
2017-05-26T00:28:10.971Z,12.25
2017-05-26T00:28:15.185Z,12.31
2017-05-26T00:28:19.379Z,12.29
2017-05-26T00:28:23.574Z,12.31
2017-05-26T00:28:27.885Z,12.3
2017-05-26T00:28:32.199Z,12.25
2017-05-26T00:28:36.403Z,12.25
2017-05-26T00:28:40.909Z,12.26
2017-05-26T00:28:45.348Z,12.25
2017-05-26T00:28:49.668Z,12.23
2017-05-26T00:28:53.978Z,12.25
2017-05-26T00:28:58.406Z,12.26
2017-05-26T00:29:02.839Z,12.23
2017-05-26T00:29:07.266Z,12.26
2017-05-26T00:29:11.466Z,12.33
2017-05-26T00:29:15.661Z,12.29
2017-05-26T00:29:19.857Z,12.33
2017-05-26T00:29:24.174Z,12.22
2017-05-26T00:29:28.433Z,12.25
2017-05-26T00:29:32.869Z,12.29
2017-05-26T00:29:37.191Z,12.31
2017-05-26T00:29:41.515Z,12.33
2017-05-26T00:29:45.956Z,12.29
2017-05-26T00:29:50.269Z,12.23
2017-05-26T00:29:54.697Z,12.25
2017-05-26T00:29:59.017Z,12.26
2017-05-26T00:30:03.465Z,12.31
2017-05-26T00:30:07.658Z,12.29
2017-05-26T00:30:11.970Z,12.25
2017-05-26T00:30:16.281Z,12.34
2017-05-26T00:30:20.711Z,12.25
2017-05-26T00:30:25.034Z,12.25
2017-05-26T00:30:29.222Z,12.37
2017-05-26T00:30:33.646Z,12.31
2017-05-26T00:30:37.961Z,12.31
2017-05-26T00:30:42.394Z,12.31
2017-05-26T00:30:46.834Z,12.3
2017-05-26T00:30:51.149Z,12.31
2017-05-26T00:30:55.583Z,12.25
2017-05-26T00:31:00.011Z,12.29
2017-05-26T00:31:04.436Z,12.3
2017-05-26T00:31:08.861Z,12.3
2017-05-26T00:31:13.294Z,12.31
2017-05-26T00:31:17.615Z,12.29
2017-05-26T00:31:22.051Z,12.36
2017-05-26T00:31:26.125Z,12.3
2017-05-26T00:31:30.430Z,12.33
2017-05-26T00:31:34.739Z,12.31
2017-05-26T00:31:39.051Z,12.29
2017-05-26T00:31:43.367Z,12.34
2017-05-26T00:31:47.805Z,12.34
2017-05-26T00:31:52.237Z,12.34
2017-05-26T00:31:56.664Z,12.29
2017-05-26T00:32:01.089Z,12.36
2017-05-26T00:32:20.213Z,12.31
2017-05-26T00:32:24.400Z,12.29
2017-05-26T00:32:28.714Z,12.34
2017-05-26T00:32:33.144Z,12.36
2017-05-26T00:32:37.586Z,12.31
2017-05-26T00:32:41.905Z,12.34
2017-05-26T00:32:46.411Z,12.36
2017-05-26T00:32:50.847Z,12.37
2017-05-26T00:32:55.162Z,12.31
2017-05-26T00:32:59.472Z,12.37
2017-05-26T00:33:03.899Z,12.36
2017-05-26T00:33:08.327Z,12.4
2017-05-26T00:33:12.406Z,12.34
2017-05-26T00:33:16.847Z,12.37
2017-05-26T00:33:21.039Z,12.41
2017-05-26T00:33:25.238Z,12.36
2017-05-26T00:33:29.661Z,12.38
2017-05-26T00:33:33.854Z,12.41
2017-05-26T00:33:38.169Z,12.37
2017-05-26T00:33:42.487Z,12.4
2017-05-26T00:33:46.921Z,12.43
2017-05-26T00:33:51.355Z,12.36
2017-05-26T00:33:55.681Z,12.44
2017-05-26T00:34:00.004Z,12.37
2017-05-26T00:34:04.434Z,12.43
2017-05-26T00:34:08.394Z,12.34
2017-05-26T00:34:12.481Z,12.4
2017-05-26T00:34:16.915Z,12.46
2017-05-26T00:34:21.104Z,12.38
2017-05-26T00:34:25.412Z,12.36
2017-05-26T00:34:29.719Z,12.37
2017-05-26T00:34:33.908Z,12.37
2017-05-26T00:34:38.106Z,12.37
2017-05-26T00:34:42.595Z,12.37
2017-05-26T00:34:47.032Z,12.44
2017-05-26T00:34:51.458Z,12.37
2017-05-26T00:34:55.783Z,12.37
2017-05-26T00:35:00.215Z,12.43
2017-05-26T00:35:04.644Z,12.36
2017-05-26T00:35:09.072Z,12.37
2017-05-26T00:35:13.382Z,12.51
2017-05-26T00:35:17.693Z,12.46
2017-05-26T00:35:21.883Z,12.44
2017-05-26T00:35:26.194Z,12.43
2017-05-26T00:35:30.506Z,12.48
2017-05-26T00:35:34.940Z,12.48
2017-05-26T00:35:39.377Z,12.48
2017-05-26T00:35:43.689Z,12.49
2017-05-26T00:35:48.117Z,12.48
2017-05-26T00:35:52.427Z,12.48
2017-05-26T00:35:56.852Z,12.54
2017-05-26T00:36:01.282Z,12.48
2017-05-26T00:36:05.595Z,12.46
2017-05-26T00:36:09.915Z,12.48
2017-05-26T00:36:14.103Z,12.51
2017-05-26T00:36:18.173Z,12.51
2017-05-26T00:36:22.481Z,12.49
2017-05-26T00:36:26.673Z,12.48
2017-05-26T00:36:31.102Z,12.52
2017-05-26T00:36:35.180Z,12.49
2017-05-26T00:36:39.618Z,12.43
2017-05-26T00:36:43.929Z,12.54
2017-05-26T00:36:48.366Z,12.54
2017-05-26T00:36:52.670Z,12.46
2017-05-26T00:36:56.981Z,12.54
2017-05-26T00:37:01.410Z,12.55
2017-05-26T00:37:05.618Z,12.55
2017-05-26T00:37:09.928Z,12.55
2017-05-26T00:37:14.361Z,12.52
2017-05-26T00:37:18.665Z,12.56
2017-05-26T00:37:23.091Z,12.58
2017-05-26T00:37:27.529Z,12.58
2017-05-26T00:37:31.868Z,12.52
2017-05-26T00:37:36.179Z,12.55
2017-05-26T00:37:40.610Z,12.49
2017-05-26T00:37:44.928Z,12.55
2017-05-26T00:37:49.361Z,12.55
2017-05-26T00:37:53.805Z,12.54
2017-05-26T00:37:58.130Z,12.55
2017-05-26T00:38:02.657Z,12.58
2017-05-26T00:38:06.858Z,12.52
2017-05-26T00:38:11.050Z,12.52
2017-05-26T00:38:15.131Z,12.56
2017-05-26T00:38:19.552Z,12.56
2017-05-26T00:38:23.860Z,12.55
2017-05-26T00:38:28.239Z,12.58
2017-05-26T00:38:32.566Z,12.55
2017-05-26T00:38:36.765Z,12.55
2017-05-26T00:38:41.080Z,12.55
2017-05-26T00:38:45.394Z,12.56
2017-05-26T00:38:49.824Z,12.56
2017-05-26T00:38:54.138Z,12.59
2017-05-26T00:38:58.580Z,12.54
2017-05-26T00:39:02.892Z,12.46
2017-05-26T00:39:07.321Z,12.58
2017-05-26T00:39:11.755Z,12.51
2017-05-26T00:39:16.185Z,12.58
2017-05-26T00:39:20.521Z,12.55
2017-05-26T00:39:24.854Z,12.52
2017-05-26T00:39:29.184Z,12.56
2017-05-26T00:39:33.489Z,12.49
2017-05-26T00:39:37.919Z,12.49
2017-05-26T00:39:42.350Z,12.51
2017-05-26T00:39:46.785Z,12.59
2017-05-26T00:39:51.151Z,12.51
2017-05-26T00:39:55.599Z,12.52
2017-05-26T00:39:59.790Z,12.48
2017-05-26T00:40:03.865Z,12.48
2017-05-26T00:40:08.056Z,12.59
2017-05-26T00:40:12.482Z,12.58
2017-05-26T00:40:16.918Z,12.51
2017-05-26T00:40:21.115Z,12.58
2017-05-26T00:40:25.541Z,12.59
2017-05-26T00:40:29.857Z,12.52
2017-05-26T00:40:33.926Z,12.61
2017-05-26T00:40:38.241Z,12.49
2017-05-26T00:40:42.681Z,12.51
2017-05-26T00:40:47.125Z,12.51
2017-05-26T00:40:51.560Z,12.52
2017-05-26T00:40:56.000Z,12.59
2017-05-26T00:41:00.308Z,12.55
2017-05-26T00:41:04.618Z,12.49
2017-05-26T00:41:08.752Z,12.52
2017-05-26T00:41:13.189Z,12.52
2017-05-26T00:41:17.390Z,12.59
2017-05-26T00:41:21.580Z,12.52
2017-05-26T00:41:26.007Z,12.58
2017-05-26T00:41:30.314Z,12.55
2017-05-26T00:41:34.512Z,12.56
2017-05-26T00:41:39.010Z,12.54
2017-05-26T00:41:43.327Z,12.56
2017-05-26T00:41:47.641Z,12.56
2017-05-26T00:41:51.951Z,12.56
2017-05-26T00:41:56.387Z,12.55
2017-05-26T00:42:00.699Z,12.56
2017-05-26T00:42:04.953Z,12.58
2017-05-26T00:42:09.385Z,12.52
2017-05-26T00:42:13.811Z,12.56
2017-05-26T00:42:18.004Z,12.55
2017-05-26T00:42:22.193Z,12.56
2017-05-26T00:42:26.504Z,12.52
2017-05-26T00:42:30.822Z,12.44
2017-05-26T00:42:35.326Z,12.54
2017-05-26T00:42:39.640Z,12.49
2017-05-26T00:42:43.720Z,12.46
2017-05-26T00:42:48.158Z,12.49
2017-05-26T00:42:52.470Z,12.44
2017-05-26T00:42:56.915Z,12.49
2017-05-26T00:43:01.387Z,12.48
2017-05-26T00:43:05.578Z,12.48
2017-05-26T00:43:09.767Z,12.46
2017-05-26T00:43:14.077Z,12.46
2017-05-26T00:43:18.279Z,12.48
2017-05-26T00:43:22.591Z,12.48
2017-05-26T00:43:27.100Z,12.48
2017-05-26T00:43:31.422Z,12.46
2017-05-26T00:43:35.734Z,12.52
2017-05-26T00:43:40.045Z,12.46
2017-05-26T00:43:44.133Z,12.48
2017-05-26T00:43:48.567Z,12.48
2017-05-26T00:43:52.883Z,12.48
2017-05-26T00:43:57.323Z,12.41
2017-05-26T00:44:01.768Z,12.36
2017-05-26T00:44:05.842Z,12.48
2017-05-26T00:44:10.155Z,12.44
2017-05-26T00:44:14.352Z,12.38
2017-05-26T00:44:18.783Z,12.41
2017-05-26T00:44:23.161Z,12.36
2017-05-26T00:44:27.597Z,12.43
2017-05-26T00:44:31.790Z,12.34
2017-05-26T00:44:35.983Z,12.43
2017-05-26T00:44:40.053Z,12.44
2017-05-26T00:44:44.491Z,12.38
2017-05-26T00:44:48.920Z,12.38
2017-05-26T00:44:53.253Z,12.41
2017-05-26T00:44:57.702Z,12.4
2017-05-26T00:45:02.493Z,12.44
2017-05-26T00:45:06.805Z,12.48
2017-05-26T00:45:11.231Z,12.4
2017-05-26T00:45:15.542Z,12.36
2017-05-26T00:45:19.852Z,12.33
2017-05-26T00:45:24.227Z,12.36
2017-05-26T00:45:28.535Z,12.4
2017-05-26T00:45:32.842Z,12.38
2017-05-26T00:45:37.039Z,12.4
2017-05-26T00:45:41.473Z,12.37
2017-05-26T00:45:45.784Z,12.36
2017-05-26T00:45:50.210Z,12.36
2017-05-26T00:45:54.706Z,12.34
2017-05-26T00:45:59.037Z,12.37
2017-05-26T00:46:03.467Z,12.36
2017-05-26T00:46:07.783Z,12.31
2017-05-26T00:46:12.209Z,12.29
2017-05-26T00:46:16.525Z,12.3
2017-05-26T00:46:20.965Z,12.37
2017-05-26T00:46:25.281Z,12.31
2017-05-26T00:46:29.590Z,12.3
2017-05-26T00:46:34.023Z,12.31
2017-05-26T00:46:38.445Z,12.33
2017-05-26T00:46:42.865Z,12.33
2017-05-26T00:46:47.181Z,12.34
2017-05-26T00:46:51.680Z,12.37
2017-05-26T00:46:56.116Z,12.37
2017-05-26T00:47:00.544Z,12.25
2017-05-26T00:47:04.969Z,12.29
2017-05-26T00:47:09.166Z,12.25
2017-05-26T00:47:13.612Z,12.3
2017-05-26T00:47:18.054Z,12.23
2017-05-26T00:47:22.486Z,12.19
2017-05-26T00:47:26.909Z,12.26
2017-05-26T00:47:31.223Z,12.3
2017-05-26T00:47:35.180Z,12.3
2017-05-26T00:47:39.612Z,12.22
2017-05-26T00:47:44.041Z,12.26
2017-05-26T00:47:48.490Z,12.34
2017-05-26T00:47:52.813Z,12.3
2017-05-26T00:47:57.248Z,12.21
2017-05-26T00:48:01.880Z,12.21
2017-05-26T00:48:06.189Z,12.18
2017-05-26T00:48:10.375Z,12.23
2017-05-26T00:48:14.708Z,12.29
2017-05-26T00:48:18.912Z,12.18
2017-05-26T00:48:23.219Z,12.21
2017-05-26T00:48:27.642Z,12.22
2017-05-26T00:48:32.081Z,12.22
2017-05-26T00:48:36.157Z,12.21
2017-05-26T00:48:40.588Z,12.19
2017-05-26T00:48:44.798Z,12.29
2017-05-26T00:48:49.239Z,12.22
2017-05-26T00:48:53.546Z,12.21
2017-05-26T00:48:57.854Z,12.19
2017-05-26T00:49:02.276Z,12.19
2017-05-26T00:49:06.716Z,12.19
2017-05-26T00:49:11.040Z,12.15
2017-05-26T00:49:15.246Z,12.15
2017-05-26T00:49:19.567Z,12.12
2017-05-26T00:49:23.882Z,12.11
2017-05-26T00:49:28.198Z,12.15
2017-05-26T00:49:32.628Z,12.18
2017-05-26T00:49:36.950Z,12.16
2017-05-26T00:49:41.380Z,12.16
2017-05-26T00:49:45.694Z,12.11
2017-05-26T00:49:50.120Z,12.05
2017-05-26T00:49:54.434Z,12.25
2017-05-26T00:49:58.863Z,12.04
2017-05-26T00:50:03.396Z,12.12
2017-05-26T00:50:07.655Z,12.07
2017-05-26T00:50:12.081Z,12.04
2017-05-26T00:50:16.518Z,12.08
2017-05-26T00:50:20.826Z,12.12
2017-05-26T00:50:25.021Z,12.11
2017-05-26T00:50:29.399Z,12.16
2017-05-26T00:50:33.603Z,12.08
2017-05-26T00:50:37.794Z,12.15
2017-05-26T00:50:42.223Z,12.03
2017-05-26T00:50:46.652Z,12.13
2017-05-26T00:50:51.088Z,12.15
2017-05-26T00:50:55.354Z,12.15
2017-05-26T00:50:59.788Z,12.08
2017-05-26T00:51:04.211Z,12.03
2017-05-26T00:51:08.528Z,12.08
2017-05-26T00:51:12.963Z,12.03
2017-05-26T00:51:17.284Z,12.01
2017-05-26T00:51:21.494Z,12.04
2017-05-26T00:51:25.922Z,12.03
2017-05-26T00:51:30.349Z,12.03
2017-05-26T00:51:34.546Z,12.03
2017-05-26T00:51:38.977Z,12.03
2017-05-26T00:51:43.403Z,12.05
2017-05-26T00:51:47.716Z,11.98
2017-05-26T00:51:52.153Z,12
2017-05-26T00:51:56.588Z,11.97
2017-05-26T00:52:00.896Z,12
2017-05-26T00:52:05.351Z,12.01
2017-05-26T00:52:09.307Z,12
2017-05-26T00:52:13.619Z,11.97
2017-05-26T00:52:17.933Z,12
2017-05-26T00:52:22.251Z,11.97
2017-05-26T00:52:26.321Z,11.97
2017-05-26T00:52:30.756Z,11.94
2017-05-26T00:52:35.185Z,11.97
2017-05-26T00:52:39.501Z,11.94
2017-05-26T00:52:43.833Z,11.9
2017-05-26T00:52:48.152Z,11.96
2017-05-26T00:52:52.645Z,11.98
2017-05-26T00:52:57.081Z,11.93
2017-05-26T00:53:01.395Z,11.9
2017-05-26T00:53:05.752Z,11.93
2017-05-26T00:53:10.069Z,11.97
2017-05-26T00:53:14.261Z,11.94
2017-05-26T00:53:18.345Z,11.9
2017-05-26T00:53:22.652Z,11.9
2017-05-26T00:53:26.734Z,11.85
2017-05-26T00:53:31.167Z,11.87
2017-05-26T00:53:35.597Z,11.87
2017-05-26T00:53:40.028Z,11.88
2017-05-26T00:53:44.290Z,11.88
2017-05-26T00:53:48.766Z,11.85
2017-05-26T00:53:53.204Z,11.87
2017-05-26T00:53:57.639Z,11.88
2017-05-26T00:54:02.066Z,11.78
2017-05-26T00:54:06.263Z,11.9
2017-05-26T00:54:10.699Z,11.88
2017-05-26T00:54:15.070Z,11.81
2017-05-26T00:54:19.502Z,11.78
2017-05-26T00:54:23.926Z,11.88
2017-05-26T00:54:28.355Z,11.78
2017-05-26T00:54:32.783Z,11.75
2017-05-26T00:54:37.096Z,11.88
2017-05-26T00:54:41.542Z,11.78
2017-05-26T00:54:45.978Z,11.81
2017-05-26T00:54:50.412Z,11.78
2017-05-26T00:54:54.725Z,11.81
2017-05-26T00:54:59.155Z,11.75
2017-05-26T00:55:03.767Z,11.79
2017-05-26T00:55:08.078Z,11.81
2017-05-26T00:55:12.159Z,11.81
2017-05-26T00:55:16.465Z,11.75
2017-05-26T00:55:20.903Z,11.84
2017-05-26T00:55:25.211Z,11.81
2017-05-26T00:55:29.644Z,11.84
2017-05-26T00:55:34.020Z,11.77
2017-05-26T00:55:38.338Z,11.72
2017-05-26T00:55:42.768Z,11.78
2017-05-26T00:55:47.200Z,11.84
2017-05-26T00:55:51.632Z,11.87
2017-05-26T00:55:56.064Z,11.77
2017-05-26T00:56:00.496Z,11.72
2017-05-26T00:56:04.737Z,11.72
2017-05-26T00:56:08.811Z,11.7
2017-05-26T00:56:13.237Z,11.81
2017-05-26T00:56:17.313Z,11.88
2017-05-26T00:56:21.501Z,11.78
2017-05-26T00:56:25.813Z,11.72
2017-05-26T00:56:30.250Z,11.75
2017-05-26T00:56:34.679Z,11.72
2017-05-26T00:56:38.989Z,11.78
2017-05-26T00:56:43.424Z,11.79
2017-05-26T00:56:47.851Z,11.75
2017-05-26T00:56:52.162Z,11.79